Aeroporto :
LOGIN :

Iscrizione | Disclaimer

   EN    FR    IT 

 










Sommario :    VFR   VFR Marginale   IFR   IFR Intensivo   IFR Molto Intensivo
Visibilità : 
Base nubi : 
>= 8 km
>= 3000ft
5 / 8 km
1000 / 3000 ft
1500m / 5 km
500 / 1000 ft
800 / 1500m
200 / 500 ft
< 800m
< 200 ft
Simboli :   Temporali  Nebbia  Neve Forte  Precipitazioni Forti  Vento > 20 kt
SIGMETs :   Varie  Temporali  Ghiacco  Turbolenza  Onda orograficha  Ceneri Vulcaniche






- Altitudine del aeroporto : 390 ft
- Codice IATA : NQY


EGHQ - Newquay

ULTIMO METAR :
  • 201420Z 13017G28KT 7000 -RADZ OVC010 08/07 Q1002

METARs OBSOLETI :
  • 201350Z 13019KT 6000 -RADZ OVC012 08/07 Q1002
  • 201320Z 13018KT 9000 -RA OVC011 08/07 Q1003
  • 201250Z 14019KT 7000 -RA OVC008 08/07 Q1003
  • 201220Z 14018KT 7000 -RA OVC007 09/08 Q1003
  • 201150Z 14018KT 8000 -RA BKN007 09/08 Q1004

TAF TAF EGHQ
Valido dal 20 a 12 ore il 20 a 21 ore UTC


201052Z 2012/2021 15012KT 9999 BKN010
TEMPO 2012/2021 14020G30KT 6000 RA BKN008



MetMap, La meteo Aeronautica in un colpo d'occhio ! - Copyright ORBIFLY Dicembre 2007 - Disclaimer

ORBIFLY MET'MAP TEAM :

Programmazione e sviluppo : Alexandra Zaïnal
Concezione e sviluppo : Baudouin d'Aumeries
Co-Programmazione e sviluppo : Marc-Olivier Méhu
Supporto tecnico e logistico : Manuel Goepfert
Aiuto per la traduzione : Arnaldo La Scala

Contatto : metmap@orbifly.com




FONTI E CREDITI :

   NOAA